Time;durP1;ratioP1;P1;durP2;ratioP2;P2;SDS_P1;SDS_P2;PMS_P1;PMS_P2;Temp;Humidity;BMP_temperature;BMP_pressure;BME280_temperature;BME280_humidity;BME280_pressure;Samples;Min_cycle;Max_cycle;Signal;HPM_P1;HPM_P2
2024/01/17 00:01:57;;;;;;;7.88;4.95;;;;;;;-3.84;55.47;99891.06;4964166;28;20023;-69
2024/01/17 00:04:23;;;;;;;7.80;5.10;;;;;;;-3.62;55.15;99890.28;4954262;28;20066;-68
2024/01/17 00:06:49;;;;;;;9.50;5.75;;;;;;;-3.76;54.88;99891.94;4961927;28;20053;-72
2024/01/17 00:09:15;;;;;;;9.73;5.68;;;;;;;-3.52;54.66;99889.47;4971160;28;20042;-70
2024/01/17 00:11:42;;;;;;;9.02;4.45;;;;;;;-3.86;55.45;99897.88;4965141;28;20034;-71
2024/01/17 00:14:08;;;;;;;9.95;5.65;;;;;;;-3.99;55.55;99891.84;4960527;28;20413;-70
2024/01/17 00:16:34;;;;;;;9.02;4.65;;;;;;;-3.98;55.22;99879.09;4958930;28;20063;-73
2024/01/17 00:18:59;;;;;;;8.38;4.07;;;;;;;-4.19;55.82;99879.84;4959230;28;20405;-71
2024/01/17 00:21:25;;;;;;;13.80;4.32;;;;;;;-3.86;55.26;99877.44;4956425;28;20038;-72
2024/01/17 00:23:50;;;;;;;16.05;4.85;;;;;;;-3.93;55.40;99877.41;4962582;28;20082;-71
2024/01/17 00:26:16;;;;;;;10.82;4.70;;;;;;;-3.65;54.10;99876.63;4956563;28;20030;-72
2024/01/17 00:28:41;;;;;;;6.80;4.15;;;;;;;-3.65;54.59;99874.97;4973702;28;20025;-65
2024/01/17 00:31:08;;;;;;;12.70;4.35;;;;;;;-4.02;55.67;99867.16;4960036;28;20533;-72
2024/01/17 00:33:34;;;;;;;5.53;3.97;;;;;;;-4.10;55.27;99862.06;4960721;28;20491;-72
2024/01/17 00:35:59;;;;;;;7.78;4.78;;;;;;;-3.89;54.79;99853.59;4961657;28;20045;-73
2024/01/17 00:38:25;;;;;;;9.23;4.82;;;;;;;-3.67;54.63;99848.56;4955078;28;20602;-73
2024/01/17 00:40:50;;;;;;;7.32;4.05;;;;;;;-4.16;55.47;99845.84;4961540;28;20084;-73
2024/01/17 00:43:16;;;;;;;7.75;3.92;;;;;;;-4.21;55.58;99852.63;4956473;28;20023;-72
2024/01/17 00:45:41;;;;;;;15.70;4.55;;;;;;;-4.31;55.98;99841.53;4967295;28;20053;-71
2024/01/17 00:48:07;;;;;;;10.77;4.15;;;;;;;-3.99;54.91;99848.47;4958885;28;20101;-71
2024/01/17 00:50:32;;;;;;;9.15;3.38;;;;;;;-4.07;55.16;99833.13;4940572;28;20645;-73
2024/01/17 00:52:57;;;;;;;8.77;3.47;;;;;;;-4.06;54.89;99829.72;4956680;28;20271;-73
2024/01/17 00:55:23;;;;;;;6.80;3.17;;;;;;;-3.56;54.21;99823.88;4955114;28;20187;-72
2024/01/17 00:57:48;;;;;;;8.93;3.45;;;;;;;-4.33;55.86;99836.41;4957537;28;20045;-72
2024/01/17 01:00:15;;;;;;;6.40;2.85;;;;;;;-3.59;54.05;99815.34;4958812;28;20062;-72
2024/01/17 01:02:42;;;;;;;4.05;3.47;;;;;;;-4.13;55.12;99812.69;4952844;28;20045;-72
2024/01/17 01:05:11;;;;;;;5.40;3.13;;;;;;;-4.26;55.20;99813.47;4955908;28;20055;-71
2024/01/17 01:07:37;;;;;;;8.25;2.60;;;;;;;-4.11;54.91;99800.78;4950097;28;20045;-72
2024/01/17 01:10:03;;;;;;;7.75;2.15;;;;;;;-4.36;55.56;99795.59;4957319;28;20043;-71
2024/01/17 01:12:28;;;;;;;5.57;2.80;;;;;;;-3.76;54.29;99779.59;4985278;28;20035;-73
2024/01/17 01:14:54;;;;;;;5.20;2.33;;;;;;;-3.78;54.44;99776.19;4959816;28;20064;-73
2024/01/17 01:17:19;;;;;;;11.63;2.85;;;;;;;-4.14;54.27;99782.91;4961411;28;20138;-72
2024/01/17 01:19:45;;;;;;;5.35;2.10;;;;;;;-3.84;53.75;99763.41;4959266;28;20089;-70
2024/01/17 01:22:10;;;;;;;8.80;2.80;;;;;;;-3.76;53.60;99769.38;4975390;28;20034;-70
2024/01/17 01:24:36;;;;;;;5.07;1.60;;;;;;;-3.93;53.62;99779.56;4953597;28;20074;-71
2024/01/17 01:27:01;;;;;;;5.60;2.10;;;;;;;-3.99;53.36;99765.06;4955588;28;20132;-70
2024/01/17 01:29:27;;;;;;;6.47;2.33;;;;;;;-3.89;53.62;99760.84;4953828;28;20052;-70
2024/01/17 01:31:52;;;;;;;8.23;2.65;;;;;;;-3.92;53.60;99756.59;4960629;28;20668;-71
2024/01/17 01:34:19;;;;;;;6.57;3.13;;;;;;;-3.94;53.48;99753.19;4954150;28;20126;-71
2024/01/17 01:36:45;;;;;;;6.03;2.60;;;;;;;-4.39;54.29;99764.97;4990485;28;20481;-69
2024/01/17 01:39:10;;;;;;;5.50;2.22;;;;;;;-3.85;53.63;99751.47;4952069;28;20132;-68
2024/01/17 01:41:36;;;;;;;4.85;2.00;;;;;;;-4.43;54.11;99750.50;4957560;28;20045;-69
2024/01/17 01:44:02;;;;;;;6.75;1.52;;;;;;;-4.07;53.25;99746.34;4956859;28;20513;-69
2024/01/17 01:46:31;;;;;;;7.90;2.40;;;;;;;-4.27;53.65;99751.41;4950739;28;20041;-69
2024/01/17 01:48:58;;;;;;;4.13;2.35;;;;;;;-4.29;53.79;99745.44;4961327;28;20038;-70
2024/01/17 01:51:24;;;;;;;6.80;1.73;;;;;;;-4.30;53.63;99752.25;4957035;28;20034;-69
2024/01/17 01:53:54;;;;;;;6.38;2.38;;;;;;;-3.91;52.66;99742.97;4974271;28;20054;-69
2024/01/17 01:56:24;;;;;;;5.70;2.22;;;;;;;-3.86;52.60;99737.03;4945014;28;20047;-70
2024/01/17 01:58:52;;;;;;;3.08;1.45;;;;;;;-4.34;53.65;99731.84;4961019;28;20469;-70
2024/01/17 02:01:18;;;;;;;4.05;2.40;;;;;;;-4.31;53.33;99740.31;4955332;28;20042;-69
2024/01/17 02:03:45;;;;;;;3.63;1.88;;;;;;;-4.26;53.07;99729.28;4958670;28;20027;-68
2024/01/17 02:06:13;;;;;;;11.48;2.25;;;;;;;-3.90;52.17;99726.81;4967743;28;20054;-70
2024/01/17 02:08:40;;;;;;;6.28;1.52;;;;;;;-3.96;51.85;99723.41;4964591;28;21422;-71
2024/01/17 02:11:06;;;;;;;3.67;2.03;;;;;;;-4.18;52.63;99717.41;4957485;28;20642;-71
2024/01/17 02:13:32;;;;;;;8.80;2.53;;;;;;;-3.80;51.78;99717.44;4955091;28;20046;-70
2024/01/17 02:16:00;;;;;;;6.07;2.47;;;;;;;-3.98;52.05;99712.34;4955917;28;20093;-70
2024/01/17 02:18:25;;;;;;;6.13;1.65;;;;;;;-3.77;51.12;99712.34;4949892;28;20048;-70
2024/01/17 02:20:51;;;;;;;7.20;2.13;;;;;;;-4.53;53.03;99708.78;4955928;28;20035;-68
2024/01/17 02:23:24;;;;;;;3.35;1.65;;;;;;;-4.32;52.46;99696.97;4957968;28;20030;-67
2024/01/17 02:25:50;;;;;;;3.42;1.75;;;;;;;-4.32;52.00;99687.63;4957939;28;20069;-67
2024/01/17 02:28:16;;;;;;;4.40;1.42;;;;;;;-3.69;51.16;99681.69;4956848;28;20038;-67
2024/01/17 02:30:41;;;;;;;7.90;1.73;;;;;;;-4.01;51.76;99669.78;4955618;28;20065;-67
2024/01/17 02:33:07;;;;;;;5.82;2.53;;;;;;;-4.05;52.07;99672.31;4958645;28;20045;-66
2024/01/17 02:35:36;;;;;;;4.57;2.17;;;;;;;-3.80;50.97;99666.38;4941630;28;20092;-67
2024/01/17 02:38:02;;;;;;;6.85;2.08;;;;;;;-4.04;51.20;99661.28;4934529;28;20035;-67
2024/01/17 02:40:27;;;;;;;4.28;1.55;;;;;;;-3.65;50.13;99662.09;4926551;28;20069;-68
2024/01/17 02:42:54;;;;;;;4.35;1.45;;;;;;;-3.97;50.87;99662.97;4937594;28;20623;-65
2024/01/17 02:45:21;;;;;;;7.05;1.77;;;;;;;-4.11;50.93;99662.97;4937505;28;20565;-65
2024/01/17 02:47:47;;;;;;;7.18;2.42;;;;;;;-4.03;51.10;99656.19;4956717;28;20517;-64
2024/01/17 02:50:14;;;;;;;2.45;1.35;;;;;;;-3.82;50.38;99662.13;4949987;28;20571;-66
2024/01/17 02:52:44;;;;;;;7.75;1.27;;;;;;;-3.80;50.24;99645.97;4944350;28;21369;-67
2024/01/17 02:55:11;;;;;;;3.17;1.40;;;;;;;-3.28;49.26;99650.97;4858475;28;20054;-64
2024/01/17 02:57:38;;;;;;;9.07;2.28;;;;;;;-3.97;49.82;99651.06;4886164;28;20370;-65
2024/01/17 03:00:06;;;;;;;4.15;1.77;;;;;;;-3.82;50.06;99652.75;4855944;28;21320;-64
2024/01/17 03:02:32;;;;;;;3.40;1.52;;;;;;;-4.13;49.93;99654.47;4856875;28;20289;-63
2024/01/17 03:04:58;;;;;;;5.65;1.55;;;;;;;-3.63;49.58;99643.41;4874334;28;26066;-64
2024/01/17 03:07:27;;;;;;;3.97;1.67;;;;;;;-3.89;50.15;99639.16;4906696;28;20038;-65
2024/01/17 03:09:52;;;;;;;8.18;1.92;;;;;;;-3.82;50.11;99634.91;4959008;28;20046;-66
2024/01/17 03:12:19;;;;;;;3.75;2.08;;;;;;;-4.33;50.41;99622.13;4964469;28;20050;-65
2024/01/17 03:14:45;;;;;;;6.38;2.65;;;;;;;-3.75;49.76;99621.25;4966094;28;20088;-67
2024/01/17 03:17:12;;;;;;;9.45;2.55;;;;;;;-3.96;49.88;99609.38;4962627;28;20062;-67
2024/01/17 03:19:38;;;;;;;4.95;2.03;;;;;;;-3.99;49.99;99605.97;4954840;28;20540;-65
2024/01/17 03:22:04;;;;;;;5.97;2.47;;;;;;;-4.11;49.99;99597.47;4962055;28;20058;-65
2024/01/17 03:24:29;;;;;;;3.25;2.05;;;;;;;-4.26;50.64;99583.88;4956148;28;20049;-66
2024/01/17 03:26:55;;;;;;;4.82;2.47;;;;;;;-4.67;51.23;99589.78;4962364;28;20377;-67
2024/01/17 03:29:20;;;;;;;4.25;2.33;;;;;;;-4.71;51.09;99582.09;4961811;28;20117;-65
2024/01/17 03:31:47;;;;;;;8.27;2.50;;;;;;;-4.30;50.06;99581.31;4956244;28;20051;-72
2024/01/17 03:34:13;;;;;;;5.60;3.22;;;;;;;-4.10;49.54;99578.75;4964365;28;20504;-66
2024/01/17 03:36:38;;;;;;;6.93;2.65;;;;;;;-3.95;49.62;99582.16;4956629;28;20034;-67
2024/01/17 03:39:04;;;;;;;4.28;2.25;;;;;;;-4.53;50.61;99565.13;4962427;28;20501;-67
2024/01/17 03:41:30;;;;;;;6.38;3.35;;;;;;;-3.96;49.34;99555.78;4955502;28;20125;-67
2024/01/17 03:43:57;;;;;;;8.52;3.35;;;;;;;-3.86;49.43;99555.75;4957029;28;20302;-67
2024/01/17 03:46:24;;;;;;;9.05;2.95;;;;;;;-4.74;50.84;99556.63;4965164;28;20027;-67
2024/01/17 03:48:50;;;;;;;5.50;2.67;;;;;;;-4.35;51.05;99552.38;4985527;28;20497;-66
2024/01/17 03:51:16;;;;;;;4.35;2.30;;;;;;;-4.50;50.79;99557.47;4961418;28;20041;-66
2024/01/17 03:53:41;;;;;;;9.88;3.25;;;;;;;-3.78;49.55;99548.94;4956802;28;20034;-66
2024/01/17 03:56:07;;;;;;;5.75;2.92;;;;;;;-4.61;51.12;99548.97;4926224;28;20813;-70
2024/01/17 03:58:34;;;;;;;4.63;2.55;;;;;;;-4.00;50.16;99538.75;4893412;28;20229;-70
2024/01/17 04:01:03;;;;;;;9.10;3.45;;;;;;;-4.13;50.13;99529.41;4875257;28;20081;-71
2024/01/17 04:03:29;;;;;;;9.45;3.72;;;;;;;-4.38;50.81;99521.78;4870111;28;20034;-70
2024/01/17 04:05:55;;;;;;;5.47;2.92;;;;;;;-4.32;50.48;99537.09;4882295;28;20418;-70
2024/01/17 04:08:20;;;;;;;8.15;3.22;;;;;;;-3.97;50.05;99528.53;4919712;28;20223;-70
2024/01/17 04:10:46;;;;;;;9.63;3.05;;;;;;;-4.28;50.68;99524.31;4958670;28;20050;-70
2024/01/17 04:13:11;;;;;;;7.15;3.25;;;;;;;-4.32;51.27;99506.50;4961459;28;20061;-70
2024/01/17 04:15:36;;;;;;;13.25;3.50;;;;;;;-4.44;51.90;99511.56;4957649;28;20070;-70
2024/01/17 04:18:02;;;;;;;5.70;3.90;;;;;;;-4.12;50.91;99498.81;4963343;28;20026;-70
2024/01/17 04:20:28;;;;;;;9.65;3.97;;;;;;;-4.26;50.97;99503.06;4963983;28;20206;-70
2024/01/17 04:22:53;;;;;;;9.60;4.07;;;;;;;-4.58;51.81;99503.09;4958184;28;20031;-70
2024/01/17 04:25:19;;;;;;;8.05;4.38;;;;;;;-4.35;51.53;99486.06;4976921;28;20042;-70
2024/01/17 04:27:45;;;;;;;10.13;4.95;;;;;;;-4.32;51.42;99491.19;4954693;28;20089;-70
2024/01/17 04:30:11;;;;;;;6.88;3.85;;;;;;;-4.11;51.07;99492.00;4969003;28;20050;-72
2024/01/17 04:32:37;;;;;;;7.22;4.80;;;;;;;-4.34;51.50;99504.78;4959432;28;20118;-70
2024/01/17 04:35:04;;;;;;;10.48;3.80;;;;;;;-4.53;52.01;99506.47;4960486;28;20042;-71
2024/01/17 04:37:30;;;;;;;7.65;3.92;;;;;;;-4.53;52.43;99491.19;4959839;28;20078;-72
2024/01/17 04:39:57;;;;;;;6.55;4.28;;;;;;;-4.62;52.43;99483.53;4968601;28;20116;-71
2024/01/17 04:42:22;;;;;;;10.00;4.97;;;;;;;-4.42;52.16;99486.94;4962745;28;20034;-71
2024/01/17 04:44:49;;;;;;;6.53;3.10;;;;;;;-4.61;52.50;99482.66;4956519;28;20038;-72
2024/01/17 04:47:15;;;;;;;7.85;4.50;;;;;;;-5.21;53.64;99470.75;4993044;28;20047;-71
2024/01/17 04:49:40;;;;;;;7.88;4.88;;;;;;;-4.75;53.11;99470.78;4969753;28;20047;-72
2024/01/17 04:52:06;;;;;;;10.57;4.70;;;;;;;-4.23;52.01;99458.84;4962262;28;20918;-72
2024/01/17 04:54:31;;;;;;;9.15;5.25;;;;;;;-4.77;53.78;99462.31;4962145;28;20034;-71
2024/01/17 04:56:58;;;;;;;14.73;4.50;;;;;;;-4.26;52.81;99454.59;4965351;28;20494;-72
2024/01/17 04:59:23;;;;;;;7.93;5.20;;;;;;;-4.65;53.53;99460.59;4964319;28;20042;-71
2024/01/17 05:01:49;;;;;;;9.95;5.40;;;;;;;-4.82;54.42;99445.28;4954694;28;20547;-71
2024/01/17 05:04:14;;;;;;;7.63;5.03;;;;;;;-4.78;53.86;99447.84;4960038;28;20570;-72
2024/01/17 05:06:40;;;;;;;6.85;3.85;;;;;;;-4.37;53.07;99431.63;4956813;28;20094;-72
2024/01/17 05:09:08;;;;;;;7.85;4.40;;;;;;;-4.67;53.63;99429.16;4969730;28;20041;-72
2024/01/17 05:11:34;;;;;;;12.13;4.80;;;;;;;-4.31;52.85;99420.59;4952550;28;20038;-72
2024/01/17 05:14:00;;;;;;;8.25;4.35;;;;;;;-4.60;53.68;99413.84;4961018;28;20117;-68
2024/01/17 05:16:26;;;;;;;5.13;3.88;;;;;;;-4.33;52.88;99420.59;4960050;28;20080;-67
2024/01/17 05:18:51;;;;;;;11.95;4.45;;;;;;;-4.42;52.80;99407.84;4952047;28;20604;-67
2024/01/17 05:21:17;;;;;;;12.30;4.70;;;;;;;-4.90;54.06;99401.09;4957613;28;20125;-69
2024/01/17 05:23:42;;;;;;;12.32;5.43;;;;;;;-4.36;52.81;99399.34;4971360;28;20062;-68
2024/01/17 05:26:08;;;;;;;11.65;5.47;;;;;;;-4.62;53.13;99384.09;4958380;28;20054;-67
2024/01/17 05:28:33;;;;;;;8.10;4.38;;;;;;;-4.93;54.45;99394.31;4960261;28;20050;-69
2024/01/17 05:30:59;;;;;;;8.45;4.90;;;;;;;-4.39;52.84;99389.13;4953377;28;20093;-68
2024/01/17 05:33:24;;;;;;;7.93;4.45;;;;;;;-4.29;52.82;99388.28;4961491;28;20053;-68
2024/01/17 05:35:50;;;;;;;10.00;4.40;;;;;;;-4.38;52.23;99378.94;4952292;28;20425;-67
2024/01/17 05:38:16;;;;;;;8.35;5.07;;;;;;;-4.39;53.14;99386.59;4943901;28;20042;-68
2024/01/17 05:40:41;;;;;;;9.55;4.53;;;;;;;-4.22;52.42;99373.81;4955680;28;20485;-71
2024/01/17 05:43:07;;;;;;;7.03;4.07;;;;;;;-4.97;54.03;99372.22;4959429;28;22921;-71
2024/01/17 05:45:32;;;;;;;14.60;4.85;;;;;;;-4.73;53.88;99367.09;4961565;28;20045;-71
2024/01/17 05:47:57;;;;;;;9.45;4.43;;;;;;;-4.88;54.58;99367.16;4969243;28;20085;-69
2024/01/17 05:50:23;;;;;;;6.57;4.15;;;;;;;-5.04;54.22;99360.34;4961426;28;20050;-67
2024/01/17 05:52:48;;;;;;;12.02;6.43;;;;;;;-4.69;54.10;99360.31;4953999;28;20045;-68
2024/01/17 05:55:15;;;;;;;10.52;4.60;;;;;;;-4.43;53.60;99360.25;4961513;28;20089;-68
2024/01/17 05:57:41;;;;;;;10.95;4.63;;;;;;;-4.76;53.60;99344.19;4959173;28;20027;-67
2024/01/17 06:00:11;;;;;;;9.02;6.18;;;;;;;-5.10;54.50;99348.47;4959748;28;20038;-72
2024/01/17 06:02:37;;;;;;;9.68;4.30;;;;;;;-4.90;54.62;99353.56;4962854;28;20035;-67
2024/01/17 06:05:04;;;;;;;14.68;4.78;;;;;;;-4.89;54.04;99345.03;4955794;28;20034;-68
2024/01/17 06:07:29;;;;;;;8.57;4.32;;;;;;;-4.74;54.25;99354.38;4958339;28;20535;-71
2024/01/17 06:09:55;;;;;;;10.80;5.35;;;;;;;-4.95;54.27;99347.59;4955731;28;20551;-72
2024/01/17 06:12:20;;;;;;;11.60;4.45;;;;;;;-4.44;53.27;99342.41;4960636;28;20035;-67
2024/01/17 06:14:50;;;;;;;8.13;3.88;;;;;;;-4.46;53.43;99344.94;4953173;28;20421;-70
2024/01/17 06:17:15;;;;;;;6.88;4.53;;;;;;;-5.04;54.09;99345.91;4959991;28;20852;-70
2024/01/17 06:19:41;;;;;;;6.57;3.72;;;;;;;-4.84;54.69;99348.44;4956241;28;20050;-71
2024/01/17 06:22:10;;;;;;;7.97;3.67;;;;;;;-4.86;54.45;99355.22;4962112;28;20122;-71
2024/01/17 06:24:36;;;;;;;6.38;3.47;;;;;;;-4.45;53.43;99341.56;4974604;28;20046;-68
2024/01/17 06:27:02;;;;;;;10.43;4.78;;;;;;;-4.96;54.65;99339.09;4953621;28;21257;-69
2024/01/17 06:29:30;;;;;;;9.57;3.40;;;;;;;-4.51;53.60;99333.94;4957900;28;20053;-72
2024/01/17 06:31:56;;;;;;;7.75;4.28;;;;;;;-4.84;54.38;99338.22;4954810;28;20042;-71
2024/01/17 06:34:22;;;;;;;3.28;2.83;;;;;;;-4.39;53.32;99330.47;4974448;28;20523;-71
2024/01/17 06:36:47;;;;;;;7.88;3.55;;;;;;;-4.73;54.13;99331.41;4967985;28;20045;-72
2024/01/17 06:39:16;;;;;;;10.90;3.70;;;;;;;-4.37;53.51;99319.41;4964344;28;20190;-73
2024/01/17 06:41:41;;;;;;;7.05;2.90;;;;;;;-4.41;53.42;99322.84;4961231;28;20499;-73
2024/01/17 06:44:07;;;;;;;6.20;3.65;;;;;;;-4.58;53.77;99311.84;4965466;28;20042;-69
2024/01/17 06:46:32;;;;;;;7.88;3.75;;;;;;;-4.54;53.55;99311.00;4958905;28;20061;-70
2024/01/17 06:48:58;;;;;;;10.57;2.88;;;;;;;-4.67;54.14;99319.53;4952084;28;20425;-69
2024/01/17 06:51:24;;;;;;;7.88;4.05;;;;;;;-4.32;53.19;99316.88;4960122;28;20040;-76
2024/01/17 06:53:50;;;;;;;4.32;3.20;;;;;;;-4.68;53.47;99305.91;4954342;28;20077;-73
2024/01/17 06:56:15;;;;;;;9.82;3.30;;;;;;;-4.89;54.25;99306.81;4990639;28;20255;-73
2024/01/17 06:58:42;;;;;;;9.70;4.60;;;;;;;-4.67;53.66;99304.22;4973507;28;20086;-75
2024/01/17 07:01:09;;;;;;;11.50;3.17;;;;;;;-4.36;53.17;99300.72;4951653;28;20434;-69
2024/01/17 07:03:35;;;;;;;8.05;3.97;;;;;;;-5.03;54.18;99303.47;4960748;28;20576;-75
2024/01/17 07:06:01;;;;;;;9.80;3.95;;;;;;;-4.67;53.58;99294.88;4966598;28;20062;-73
2024/01/17 07:08:27;;;;;;;10.68;4.03;;;;;;;-4.41;52.75;99301.56;4959517;28;20038;-73
2024/01/17 07:10:53;;;;;;;5.47;3.17;;;;;;;-4.37;52.71;99300.72;4967441;28;20045;-74
2024/01/17 07:13:19;;;;;;;5.22;2.80;;;;;;;-4.44;52.97;99297.34;4956919;28;20130;-75
2024/01/17 07:15:44;;;;;;;6.35;3.92;;;;;;;-4.67;53.11;99299.13;4958056;28;20034;-73
2024/01/17 07:18:10;;;;;;;5.22;3.00;;;;;;;-4.70;53.66;99289.81;4966648;28;20034;-72
2024/01/17 07:20:36;;;;;;;7.93;3.45;;;;;;;-4.38;53.17;99299.03;4957269;28;20498;-72
2024/01/17 07:23:02;;;;;;;6.18;4.10;;;;;;;-4.92;54.04;99296.66;4953800;28;20253;-68
2024/01/17 07:25:28;;;;;;;4.88;3.40;;;;;;;-4.75;53.81;99292.34;4957358;28;20046;-73
2024/01/17 07:27:53;;;;;;;6.65;3.88;;;;;;;-4.32;52.49;99287.09;4949523;28;20039;-74
2024/01/17 07:30:19;;;;;;;6.72;3.67;;;;;;;-4.82;53.59;99285.56;4943929;28;20061;-74
2024/01/17 07:32:45;;;;;;;6.53;3.63;;;;;;;-4.70;53.67;99289.81;4959066;28;20043;-72
2024/01/17 07:35:11;;;;;;;12.55;4.55;;;;;;;-4.57;53.44;99281.25;4953616;28;20042;-69
2024/01/17 07:37:36;;;;;;;6.93;3.15;;;;;;;-5.26;54.69;99286.50;4959632;28;20030;-74
2024/01/17 07:40:04;;;;;;;7.93;3.85;;;;;;;-4.73;53.33;99279.59;4965637;28;20489;-71
2024/01/17 07:42:30;;;;;;;9.30;4.75;;;;;;;-4.99;54.30;99279.66;4959808;28;20121;-71
2024/01/17 07:44:56;;;;;;;11.23;4.47;;;;;;;-4.67;53.22;99279.56;4953293;28;20134;-68
2024/01/17 07:47:21;;;;;;;6.53;3.35;;;;;;;-4.25;52.20;99274.31;4959928;28;20129;-68
2024/01/17 07:49:48;;;;;;;7.93;3.90;;;;;;;-4.61;52.89;99273.59;4958455;28;20161;-70
2024/01/17 07:52:14;;;;;;;8.73;3.60;;;;;;;-4.82;53.51;99270.25;4947888;28;20477;-70
2024/01/17 07:54:39;;;;;;;8.25;3.05;;;;;;;-4.71;52.98;99267.69;4955651;28;20039;-70
2024/01/17 07:57:05;;;;;;;6.63;3.58;;;;;;;-4.35;52.44;99271.78;4970334;28;20085;-70
2024/01/17 07:59:31;;;;;;;10.82;3.50;;;;;;;-4.36;52.32;99264.16;4960989;28;20750;-68
2024/01/17 08:01:57;;;;;;;6.82;4.10;;;;;;;-4.23;52.07;99259.81;4955075;28;20820;-67
2024/01/17 08:04:23;;;;;;;5.95;3.25;;;;;;;-4.57;52.41;99252.34;4953553;28;20051;-69
2024/01/17 08:06:49;;;;;;;6.90;3.85;;;;;;;-4.67;52.84;99251.53;4991443;28;20034;-67
2024/01/17 08:09:21;;;;;;;6.68;3.28;;;;;;;-4.22;52.27;99252.19;4949047;28;20503;-69
2024/01/17 08:11:51;;;;;;;12.13;4.22;;;;;;;-4.64;52.84;99245.56;4947692;28;20596;-69
2024/01/17 08:14:17;;;;;;;6.43;4.07;;;;;;;-4.45;52.35;99243.81;4963116;28;20046;-70
2024/01/17 08:16:44;;;;;;;7.32;3.63;;;;;;;-5.24;53.95;99241.47;4960027;28;20026;-69
2024/01/17 08:19:09;;;;;;;8.73;3.65;;;;;;;-5.30;54.59;99245.72;4956355;28;20046;-70
2024/01/17 08:21:35;;;;;;;7.88;3.67;;;;;;;-4.69;52.80;99234.56;4957472;28;20635;-74
2024/01/17 08:24:01;;;;;;;10.85;3.95;;;;;;;-4.89;53.37;99232.06;4955714;28;20604;-72
2024/01/17 08:26:27;;;;;;;11.77;4.07;;;;;;;-4.80;53.53;99227.78;4961967;28;20034;-73
2024/01/17 08:28:53;;;;;;;10.00;3.47;;;;;;;-4.88;53.68;99216.78;4962290;28;20027;-70
2024/01/17 08:31:18;;;;;;;7.47;3.40;;;;;;;-4.86;53.55;99222.69;4952183;28;20461;-71
2024/01/17 08:33:44;;;;;;;5.10;3.58;;;;;;;-4.90;53.49;99221.03;4961533;28;20682;-70
2024/01/17 08:36:10;;;;;;;8.75;3.47;;;;;;;-4.50;52.76;99225.94;4951205;28;20046;-70
2024/01/17 08:38:36;;;;;;;6.32;3.65;;;;;;;-4.46;52.14;99225.09;4967965;28;20035;-68
2024/01/17 08:41:01;;;;;;;7.25;2.88;;;;;;;-4.24;52.15;99217.31;4941870;28;20524;-67
2024/01/17 08:43:27;;;;;;;6.43;3.53;;;;;;;-4.66;53.16;99214.13;4898820;28;20061;-68
2024/01/17 08:45:54;;;;;;;10.48;3.70;;;;;;;-4.71;53.25;99215.00;4897772;28;20851;-68
2024/01/17 08:48:20;;;;;;;10.23;4.10;;;;;;;-4.48;52.42;99214.03;4912193;28;20119;-64
2024/01/17 08:50:45;;;;;;;7.15;3.25;;;;;;;-4.32;52.26;99210.56;4936658;28;20039;-64
2024/01/17 08:53:11;;;;;;;7.95;3.92;;;;;;;-4.56;52.56;99211.53;4869541;28;21000;-64
2024/01/17 08:55:36;;;;;;;6.22;3.30;;;;;;;-4.87;53.86;99215.91;4878061;28;20608;-65
2024/01/17 08:58:02;;;;;;;4.63;3.17;;;;;;;-4.81;53.61;99222.69;4874047;28;20226;-65
2024/01/17 09:00:28;;;;;;;8.68;3.63;;;;;;;-4.25;51.95;99213.09;4876452;28;20233;-64
2024/01/17 09:02:54;;;;;;;6.22;3.30;;;;;;;-4.31;52.14;99212.25;4885117;28;20033;-66
2024/01/17 09:05:20;;;;;;;8.00;3.97;;;;;;;-4.16;51.83;99216.44;4951590;28;21342;-64
2024/01/17 09:07:49;;;;;;;6.30;3.47;;;;;;;-4.77;52.66;99215.03;4957377;28;20089;-69
2024/01/17 09:10:17;;;;;;;7.63;4.70;;;;;;;-4.40;51.81;99211.47;4931237;28;20042;-64
2024/01/17 09:12:46;;;;;;;7.13;3.28;;;;;;;-4.54;52.85;99203.91;4957731;28;20124;-65
2024/01/17 09:15:12;;;;;;;8.55;4.47;;;;;;;-4.33;52.29;99216.50;4951750;28;20051;-67
2024/01/17 09:17:37;;;;;;;13.73;3.92;;;;;;;-4.07;51.90;99195.13;4956112;28;20034;-64
2024/01/17 09:20:04;;;;;;;8.13;3.90;;;;;;;-3.94;51.21;99199.28;4942367;28;20086;-64
2024/01/17 09:22:29;;;;;;;7.60;3.38;;;;;;;-4.61;52.38;99197.09;4961328;28;20114;-65
2024/01/17 09:24:55;;;;;;;5.85;3.63;;;;;;;-4.50;51.63;99195.34;4952774;28;20061;-66
2024/01/17 09:27:20;;;;;;;7.07;3.97;;;;;;;-4.52;52.89;99197.09;4944665;28;20875;-66
2024/01/17 09:29:47;;;;;;;6.60;3.90;;;;;;;-4.39;52.30;99196.16;4971511;28;20125;-65
2024/01/17 09:32:13;;;;;;;7.25;3.20;;;;;;;-4.27;51.25;99196.94;4969327;28;20088;-66
2024/01/17 09:34:41;;;;;;;10.10;3.58;;;;;;;-4.53;51.92;99196.22;4963527;28;20077;-68
2024/01/17 09:37:06;;;;;;;11.63;3.75;;;;;;;-4.00;51.15;99191.66;4952521;28;20030;-65
2024/01/17 09:39:32;;;;;;;10.45;3.90;;;;;;;-4.50;51.78;99195.34;4958947;28;20633;-65
2024/01/17 09:41:59;;;;;;;6.53;3.47;;;;;;;-4.56;52.22;99193.69;4959933;28;20030;-66
2024/01/17 09:44:26;;;;;;;7.45;4.28;;;;;;;-4.25;51.10;99190.13;4953036;28;20050;-69
2024/01/17 09:46:52;;;;;;;6.22;3.55;;;;;;;-4.58;51.81;99202.22;4959819;28;20041;-65
2024/01/17 09:49:17;;;;;;;9.10;3.95;;;;;;;-4.47;52.05;99199.63;4951577;28;25155;-66
2024/01/17 09:51:43;;;;;;;7.35;3.40;;;;;;;-4.14;51.32;99196.00;4953700;28;20035;-65
2024/01/17 09:54:09;;;;;;;6.28;2.83;;;;;;;-4.32;51.56;99189.31;4948910;28;20093;-65
2024/01/17 09:56:37;;;;;;;4.68;3.22;;;;;;;-4.27;50.91;99191.84;4956449;28;20034;-65
2024/01/17 09:59:16;;;;;;;4.95;2.97;;;;;;;-4.33;51.44;99183.34;4947757;28;20038;-64
2024/01/17 10:01:43;;;;;;;6.70;3.58;;;;;;;-4.32;51.17;99179.97;4949139;28;20035;-68
2024/01/17 10:04:11;;;;;;;8.15;3.28;;;;;;;-4.33;51.48;99187.63;4944861;28;20448;-69
2024/01/17 10:06:39;;;;;;;6.18;2.88;;;;;;;-4.01;50.41;99184.88;4949209;28;20497;-66
2024/01/17 10:09:06;;;;;;;5.78;2.75;;;;;;;-4.13;50.57;99177.28;4949388;28;20058;-64
2024/01/17 10:11:32;;;;;;;5.53;3.13;;;;;;;-3.59;49.77;99175.13;4974340;28;20037;-65
2024/01/17 10:13:58;;;;;;;8.70;2.95;;;;;;;-3.86;49.86;99170.28;4907580;28;20209;-66
2024/01/17 10:16:26;;;;;;;7.28;2.55;;;;;;;-3.96;49.69;99167.81;4872140;28;20065;-65
2024/01/17 10:18:51;;;;;;;5.30;2.85;;;;;;;-3.80;49.05;99154.91;4878048;28;20825;-67
2024/01/17 10:21:17;;;;;;;5.80;3.22;;;;;;;-4.64;51.10;99172.47;4873289;28;20299;-66
2024/01/17 10:23:43;;;;;;;7.95;3.03;;;;;;;-4.29;51.00;99174.00;4864657;28;21144;-64
2024/01/17 10:26:09;;;;;;;11.02;3.95;;;;;;;-4.01;50.11;99179.75;4920779;28;20085;-66
2024/01/17 10:28:35;;;;;;;8.25;3.50;;;;;;;-4.24;50.73;99186.72;4945539;28;20038;-67
2024/01/17 10:31:06;;;;;;;13.25;4.97;;;;;;;-3.96;50.08;99178.00;4953195;28;20357;-66
2024/01/17 10:33:32;;;;;;;5.25;3.38;;;;;;;-3.77;49.63;99172.75;4949121;28;20707;-66
2024/01/17 10:35:58;;;;;;;11.00;3.22;;;;;;;-3.70;50.09;99180.38;4955845;28;20061;-66
2024/01/17 10:38:31;;;;;;;5.38;3.17;;;;;;;-3.88;49.93;99172.84;4950313;28;20070;-65
2024/01/17 10:41:06;;;;;;;;;;;;;;;-4.13;50.62;99164.53;4955167;28;20050;-64
2024/01/17 10:43:32;;;;;;;9.95;3.72;;;;;;;-3.62;50.07;99167.50;4949521;28;20331;-68
2024/01/17 10:46:01;;;;;;;8.25;3.47;;;;;;;-3.75;50.11;99161.66;4954972;28;20815;-64
2024/01/17 10:48:27;;;;;;;8.32;3.67;;;;;;;-4.16;50.82;99165.41;4950932;28;20085;-69
2024/01/17 10:51:00;;;;;;;11.93;3.15;;;;;;;-3.88;50.65;99176.22;4953407;28;20042;-69
2024/01/17 10:53:29;;;;;;;9.40;4.13;;;;;;;-3.43;49.29;99162.22;4951731;28;20065;-65
2024/01/17 10:56:03;;;;;;;5.32;3.22;;;;;;;-3.94;50.16;99160.97;4954114;28;20452;-64
2024/01/17 10:58:34;;;;;;;5.65;3.45;;;;;;;-3.81;50.15;99163.41;4949586;28;20030;-66
2024/01/17 11:01:05;;;;;;;5.90;3.25;;;;;;;-3.88;49.38;99160.91;4956056;28;20513;-66
2024/01/17 11:03:33;;;;;;;8.23;4.13;;;;;;;-3.67;49.98;99156.50;4977697;28;20053;-65
2024/01/17 11:06:00;;;;;;;7.00;3.42;;;;;;;-3.66;50.17;99163.28;4956456;28;20130;-68
2024/01/17 11:08:26;;;;;;;8.00;3.33;;;;;;;-3.58;50.62;99158.97;4948106;28;20296;-64
2024/01/17 11:10:54;;;;;;;9.60;3.33;;;;;;;-3.60;50.23;99165.78;4951868;28;20580;-64
2024/01/17 11:13:20;;;;;;;6.53;3.58;;;;;;;-4.16;51.37;99156.91;4948698;28;20070;-66
2024/01/17 11:15:48;;;;;;;8.07;3.67;;;;;;;-4.06;51.74;99147.47;4952848;28;20043;-65
2024/01/17 11:18:15;;;;;;;6.28;3.28;;;;;;;-3.58;51.65;99147.91;4956383;28;20233;-66
2024/01/17 11:20:41;;;;;;;10.02;4.03;;;;;;;-3.38;51.42;99150.28;4979263;28;20173;-67
2024/01/17 11:23:08;;;;;;;8.13;4.03;;;;;;;-3.63;51.39;99145.41;4958862;28;20023;-66
2024/01/17 11:25:53;;;;;;;8.82;4.45;;;;;;;-3.61;51.33;99147.94;4958671;28;20050;-66
2024/01/17 11:28:25;;;;;;;11.55;4.15;;;;;;;-4.20;52.55;99139.91;4954992;28;20564;-66